createdAt,value
2023-05-07T00:02:12.840Z,83.84
2023-05-07T00:04:39.271Z,83.95
2023-05-07T00:07:05.609Z,84.05
2023-05-07T00:09:34.706Z,84.29
2023-05-07T00:12:01.289Z,84.49
2023-05-07T00:14:27.704Z,84.67
2023-05-07T00:16:54.212Z,84.71
2023-05-07T00:19:20.695Z,84.77
2023-05-07T00:21:47.051Z,84.82
2023-05-07T00:24:13.480Z,84.82
2023-05-07T00:26:39.824Z,84.81
2023-05-07T00:29:06.138Z,84.74
2023-05-07T00:31:32.814Z,84.70
2023-05-07T00:33:59.277Z,84.64
2023-05-07T00:36:25.590Z,84.58
2023-05-07T00:38:51.991Z,84.52
2023-05-07T00:41:20.551Z,84.45
2023-05-07T00:43:46.963Z,84.39
2023-05-07T00:46:14.074Z,84.55
2023-05-07T00:48:40.847Z,84.51
2023-05-07T00:51:07.654Z,84.32
2023-05-07T00:53:34.879Z,84.28
2023-05-07T00:56:01.272Z,84.23
2023-05-07T00:58:27.752Z,84.19
2023-05-07T01:01:02.584Z,84.20
2023-05-07T01:03:29.018Z,84.26
2023-05-07T01:05:57.408Z,84.31
2023-05-07T01:08:24.469Z,84.29
2023-05-07T01:10:51.336Z,84.26
2023-05-07T01:13:19.024Z,84.27
2023-05-07T01:15:45.733Z,84.22
2023-05-07T01:18:12.530Z,84.18
2023-05-07T01:20:39.163Z,84.16
2023-05-07T01:23:07.319Z,84.10
2023-05-07T01:25:33.858Z,84.03
2023-05-07T01:28:00.906Z,84.00
2023-05-07T01:30:29.911Z,83.95
2023-05-07T01:32:59.203Z,83.91
2023-05-07T01:35:29.277Z,83.87
2023-05-07T01:37:55.712Z,83.85
2023-05-07T01:40:22.754Z,83.81
2023-05-07T01:42:49.107Z,83.80
2023-05-07T01:45:15.599Z,83.77
2023-05-07T01:47:42.664Z,83.77
2023-05-07T01:50:09.971Z,83.80
2023-05-07T01:52:38.590Z,83.79
2023-05-07T01:55:06.044Z,83.79
2023-05-07T01:57:32.558Z,83.80
2023-05-07T01:59:58.911Z,83.79
2023-05-07T02:02:25.412Z,83.83
2023-05-07T02:04:52.774Z,83.82
2023-05-07T02:07:22.644Z,83.85
2023-05-07T02:09:49.201Z,83.88
2023-05-07T02:12:15.805Z,83.89
2023-05-07T02:14:42.344Z,83.88
2023-05-07T02:17:08.660Z,83.89
2023-05-07T02:19:35.400Z,83.91
2023-05-07T02:22:01.737Z,84.05
2023-05-07T02:24:30.463Z,84.14
2023-05-07T02:26:56.992Z,84.24
2023-05-07T02:29:23.403Z,84.32
2023-05-07T02:31:49.824Z,84.37
2023-05-07T02:34:16.306Z,84.42
2023-05-07T02:36:42.877Z,84.45
2023-05-07T02:39:12.595Z,84.45
2023-05-07T02:41:39.010Z,84.53
2023-05-07T02:44:05.899Z,84.57
2023-05-07T02:46:32.833Z,84.53
2023-05-07T02:49:03.264Z,84.56
2023-05-07T02:51:30.457Z,84.72
2023-05-07T02:53:58.240Z,84.74
2023-05-07T02:56:26.485Z,84.76
2023-05-07T02:58:52.834Z,84.76
2023-05-07T03:01:19.867Z,84.80
2023-05-07T03:04:03.083Z,84.80
2023-05-07T03:06:29.588Z,84.78
2023-05-07T03:08:55.962Z,84.74
2023-05-07T03:11:22.329Z,84.74
2023-05-07T03:13:49.195Z,84.72
2023-05-07T03:16:17.544Z,84.69
2023-05-07T03:18:44.128Z,84.72
2023-05-07T03:21:11.087Z,84.71
2023-05-07T03:23:37.725Z,84.71
2023-05-07T03:26:04.134Z,84.70
2023-05-07T03:28:30.442Z,84.69
2023-05-07T03:31:00.187Z,84.72
2023-05-07T03:33:27.027Z,84.71
2023-05-07T03:35:54.309Z,84.71
2023-05-07T03:38:22.945Z,84.65
2023-05-07T03:40:49.802Z,84.60
2023-05-07T03:43:16.447Z,84.63
2023-05-07T03:45:46.882Z,84.64
2023-05-07T03:48:16.943Z,84.64
2023-05-07T03:50:43.442Z,84.67
2023-05-07T03:53:12.449Z,84.63
2023-05-07T03:55:39.473Z,84.63
2023-05-07T03:58:05.898Z,84.61
2023-05-07T04:00:32.645Z,84.59
2023-05-07T04:02:59.839Z,84.60
2023-05-07T04:05:28.876Z,84.64
2023-05-07T04:07:59.381Z,84.61
2023-05-07T04:10:30.289Z,84.62
2023-05-07T04:12:57.225Z,84.62
2023-05-07T04:15:24.043Z,84.57
2023-05-07T04:17:50.588Z,84.50
2023-05-07T04:20:18.536Z,84.54
2023-05-07T04:22:47.950Z,84.50
2023-05-07T04:25:16.302Z,84.54
2023-05-07T04:27:46.133Z,84.52
2023-05-07T04:30:13.530Z,84.51
2023-05-07T04:32:40.155Z,84.46
2023-05-07T04:35:06.884Z,84.46
2023-05-07T04:37:33.915Z,84.44
2023-05-07T04:40:00.826Z,84.37
2023-05-07T04:42:30.076Z,84.34
2023-05-07T04:44:56.487Z,84.33
2023-05-07T04:47:23.363Z,84.34
2023-05-07T04:49:50.911Z,84.28
2023-05-07T04:52:17.255Z,84.26
2023-05-07T04:54:43.655Z,84.22
2023-05-07T04:57:10.060Z,84.21
2023-05-07T04:59:38.979Z,84.16
2023-05-07T05:02:08.458Z,84.12
2023-05-07T05:04:34.898Z,84.05
2023-05-07T05:07:01.735Z,84.06
2023-05-07T05:09:28.369Z,84.04
2023-05-07T05:11:55.612Z,84.15
2023-05-07T05:14:24.258Z,84.29
2023-05-07T05:16:51.228Z,84.29
2023-05-07T05:19:18.223Z,84.34
2023-05-07T05:21:44.686Z,84.36
2023-05-07T05:24:13.754Z,84.33
2023-05-07T05:26:40.186Z,84.40
2023-05-07T05:29:07.731Z,84.38
2023-05-07T05:31:34.403Z,84.35
2023-05-07T05:34:00.869Z,84.29
2023-05-07T05:36:27.340Z,84.26
2023-05-07T05:38:55.833Z,84.20
2023-05-07T05:41:22.880Z,84.18
2023-05-07T05:43:52.249Z,84.12
2023-05-07T05:46:19.516Z,84.12
2023-05-07T05:48:46.781Z,84.16
2023-05-07T05:51:13.143Z,84.16
2023-05-07T05:53:39.572Z,84.10
2023-05-07T05:56:06.422Z,83.98
2023-05-07T05:58:33.589Z,83.89
2023-05-07T06:01:04.846Z,83.86
2023-05-07T06:03:31.889Z,83.88
2023-05-07T06:05:59.392Z,83.92
2023-05-07T06:08:26.490Z,83.83
2023-05-07T06:10:52.876Z,83.65
2023-05-07T06:13:19.414Z,83.49
2023-05-07T06:15:46.209Z,83.14
2023-05-07T06:18:13.014Z,82.89
2023-05-07T06:20:40.354Z,83.07
2023-05-07T06:23:09.945Z,83.25
2023-05-07T06:25:36.324Z,83.35
2023-05-07T06:28:03.071Z,83.32
2023-05-07T06:30:30.368Z,83.20
2023-05-07T06:32:57.728Z,83.06
2023-05-07T06:35:24.964Z,83.05
2023-05-07T06:37:51.456Z,83.01
2023-05-07T06:40:22.198Z,82.55
2023-05-07T06:42:49.054Z,82.47
2023-05-07T06:45:38.208Z,82.33
2023-05-07T06:48:05.014Z,82.22
2023-05-07T06:50:33.326Z,81.93
2023-05-07T06:53:00.782Z,81.97
2023-05-07T06:55:27.177Z,82.02
2023-05-07T06:57:53.963Z,81.89
2023-05-07T07:00:21.793Z,82.12
2023-05-07T07:02:52.134Z,82.04
2023-05-07T07:05:20.372Z,81.69
2023-05-07T07:07:46.850Z,81.80
2023-05-07T07:10:13.338Z,81.47
2023-05-07T07:12:39.801Z,81.40
2023-05-07T07:15:06.626Z,81.45
2023-05-07T07:17:33.082Z,81.47
2023-05-07T07:20:00.218Z,81.40
2023-05-07T07:22:26.595Z,81.23
2023-05-07T07:24:52.973Z,81.05
2023-05-07T07:27:19.391Z,80.67
2023-05-07T07:29:46.060Z,80.34
2023-05-07T07:32:12.597Z,80.32
2023-05-07T07:34:39.858Z,80.49
2023-05-07T07:37:06.657Z,80.42
2023-05-07T07:39:33.730Z,80.23
2023-05-07T07:42:00.543Z,80.01
2023-05-07T07:44:29.350Z,80.02
2023-05-07T07:46:58.608Z,80.18
2023-05-07T07:49:26.405Z,80.37
2023-05-07T07:51:53.397Z,80.54
2023-05-07T07:54:19.798Z,80.55
2023-05-07T07:56:46.636Z,80.38
2023-05-07T07:59:13.488Z,80.22
2023-05-07T08:01:40.384Z,79.69
2023-05-07T08:04:07.418Z,79.67
2023-05-07T08:06:36.816Z,79.88
2023-05-07T08:09:03.774Z,80.12
2023-05-07T08:11:38.044Z,80.25
2023-05-07T08:14:05.115Z,80.12
2023-05-07T08:16:31.973Z,79.61
2023-05-07T08:18:58.950Z,79.21
2023-05-07T08:21:25.560Z,79.35
2023-05-07T08:23:52.144Z,78.79
2023-05-07T08:26:18.994Z,78.60
2023-05-07T08:28:45.449Z,79.49
2023-05-07T08:31:14.419Z,79.50
2023-05-07T08:33:41.350Z,79.34
2023-05-07T08:36:10.516Z,79.06
2023-05-07T08:38:37.468Z,78.80
2023-05-07T08:41:06.505Z,78.76
2023-05-07T08:43:33.264Z,78.72
2023-05-07T08:46:01.296Z,78.57
2023-05-07T08:48:44.591Z,78.47
2023-05-07T08:51:19.824Z,78.51
2023-05-07T08:53:52.065Z,78.89
2023-05-07T08:56:25.212Z,79.01
2023-05-07T08:58:52.419Z,78.90
2023-05-07T09:01:19.389Z,78.64
2023-05-07T09:03:56.717Z,78.54
2023-05-07T09:06:23.891Z,78.22
2023-05-07T09:08:51.461Z,77.92
2023-05-07T09:11:20.403Z,77.92
2023-05-07T09:13:47.114Z,77.76
2023-05-07T09:16:22.801Z,77.26
2023-05-07T09:18:51.740Z,77.06
2023-05-07T09:21:18.912Z,77.15
2023-05-07T09:23:48.066Z,77.30
2023-05-07T09:26:14.793Z,77.40
2023-05-07T09:28:42.502Z,77.45
2023-05-07T09:31:10.796Z,77.42
2023-05-07T09:33:38.204Z,77.50
2023-05-07T09:36:05.709Z,77.31
2023-05-07T09:38:33.450Z,77.37
2023-05-07T09:41:07.182Z,77.44
2023-05-07T09:43:37.926Z,77.51
2023-05-07T09:46:11.703Z,77.61
2023-05-07T09:48:39.632Z,77.55
2023-05-07T09:51:15.875Z,77.63
2023-05-07T09:53:43.569Z,77.81
2023-05-07T09:56:11.557Z,78.09
2023-05-07T09:58:39.749Z,78.13
2023-05-07T10:01:06.862Z,78.06
2023-05-07T10:03:38.537Z,77.49
2023-05-07T10:06:05.568Z,77.37
2023-05-07T10:08:32.142Z,77.48
2023-05-07T10:10:59.958Z,77.91
2023-05-07T10:13:27.693Z,77.98
2023-05-07T10:15:55.961Z,77.96
2023-05-07T10:18:23.699Z,77.72
2023-05-07T10:20:51.804Z,77.51
2023-05-07T10:23:22.456Z,77.63
2023-05-07T10:25:49.057Z,77.84
2023-05-07T10:28:19.859Z,77.85
2023-05-07T10:30:56.185Z,77.90
2023-05-07T10:33:25.424Z,78.03
2023-05-07T10:35:56.014Z,78.05
2023-05-07T10:38:22.523Z,78.11
2023-05-07T10:40:54.552Z,77.99
2023-05-07T10:43:23.952Z,77.82
2023-05-07T10:46:14.281Z,77.79
2023-05-07T10:49:02.160Z,77.60
2023-05-07T10:51:34.996Z,77.36
2023-05-07T10:54:10.692Z,77.44
2023-05-07T10:56:38.830Z,77.55
2023-05-07T10:59:30.715Z,77.66
2023-05-07T11:02:00.429Z,77.29
2023-05-07T11:05:07.946Z,77.24
2023-05-07T11:07:34.911Z,77.41
2023-05-07T11:10:06.202Z,77.39
2023-05-07T11:12:53.742Z,77.49
2023-05-07T11:15:36.042Z,77.74
2023-05-07T11:18:07.372Z,77.84
2023-05-07T11:20:56.261Z,77.59
2023-05-07T11:23:40.208Z,77.43
2023-05-07T11:26:15.969Z,77.17
2023-05-07T11:28:44.006Z,77.01
2023-05-07T11:31:11.268Z,77.10
2023-05-07T11:33:38.628Z,77.26
2023-05-07T11:36:09.105Z,76.95
2023-05-07T11:38:41.120Z,77.15
2023-05-07T11:41:07.978Z,76.67
2023-05-07T11:43:35.119Z,75.61
2023-05-07T11:46:09.296Z,76.07
2023-05-07T11:48:36.797Z,74.37
2023-05-07T11:51:04.629Z,74.61
2023-05-07T11:53:41.752Z,73.49
2023-05-07T11:56:12.681Z,73.10
2023-05-07T11:58:39.896Z,73.55
2023-05-07T12:01:10.954Z,73.10
2023-05-07T12:03:38.623Z,73.01
2023-05-07T12:06:09.127Z,72.89
2023-05-07T12:08:39.606Z,73.16
2023-05-07T12:11:10.546Z,73.56
2023-05-07T12:13:48.028Z,73.68
2023-05-07T12:16:14.645Z,74.21
2023-05-07T12:18:41.600Z,74.51
2023-05-07T12:21:08.146Z,74.43
2023-05-07T12:23:43.908Z,74.34
2023-05-07T12:26:10.570Z,74.53
2023-05-07T12:28:38.431Z,74.82
2023-05-07T12:31:07.018Z,75.13
2023-05-07T12:33:35.898Z,75.98
2023-05-07T12:36:06.422Z,76.41
2023-05-07T12:38:36.979Z,75.89
2023-05-07T12:41:03.597Z,72.83
2023-05-07T12:43:38.792Z,73.59
2023-05-07T12:46:06.734Z,72.75
2023-05-07T12:48:33.544Z,72.24
2023-05-07T12:51:01.012Z,72.17
2023-05-07T12:53:28.177Z,73.10
2023-05-07T12:55:55.656Z,73.14
2023-05-07T12:58:31.224Z,73.90
2023-05-07T13:01:01.316Z,74.12
2023-05-07T13:03:28.984Z,74.14
2023-05-07T13:06:09.136Z,74.68
2023-05-07T13:09:06.980Z,75.42
2023-05-07T13:11:33.544Z,76.23
2023-05-07T13:13:59.985Z,77.00
2023-05-07T13:16:33.831Z,77.05
2023-05-07T13:19:00.299Z,77.31
2023-05-07T13:21:26.648Z,77.49
2023-05-07T13:23:53.060Z,77.43
2023-05-07T13:28:51.937Z,77.54
2023-05-07T13:31:18.500Z,76.96
2023-05-07T13:33:47.754Z,76.67
2023-05-07T13:36:14.970Z,77.00
2023-05-07T13:38:41.392Z,77.09
2023-05-07T13:41:07.866Z,76.44
2023-05-07T13:43:34.231Z,76.70
2023-05-07T13:46:01.066Z,76.92
2023-05-07T13:48:27.565Z,77.44
2023-05-07T13:50:54.011Z,77.11
2023-05-07T13:53:20.427Z,76.44
2023-05-07T13:55:46.896Z,75.31
2023-05-07T13:58:14.051Z,75.11
2023-05-07T14:00:40.538Z,75.52
2023-05-07T14:03:07.277Z,75.62
2023-05-07T14:05:33.778Z,75.40
2023-05-07T14:08:00.619Z,75.00
2023-05-07T14:10:27.110Z,74.57
2023-05-07T14:12:53.783Z,74.62
2023-05-07T14:15:20.398Z,74.68
2023-05-07T14:17:46.843Z,74.70
2023-05-07T14:20:13.537Z,75.21
2023-05-07T14:22:40.273Z,75.77
2023-05-07T14:25:07.527Z,75.59
2023-05-07T14:27:34.002Z,76.63
2023-05-07T14:30:00.369Z,76.81
2023-05-07T14:32:26.986Z,76.69
2023-05-07T14:34:53.443Z,76.29
2023-05-07T14:37:22.740Z,76.88
2023-05-07T14:39:50.976Z,76.53
2023-05-07T14:42:18.150Z,76.32
2023-05-07T14:44:45.529Z,76.35
2023-05-07T14:47:12.058Z,76.53
2023-05-07T14:49:38.792Z,76.79
2023-05-07T14:52:05.382Z,76.95
2023-05-07T14:54:33.784Z,77.59
2023-05-07T14:57:00.242Z,77.57
2023-05-07T14:59:26.621Z,77.39
2023-05-07T15:01:53.142Z,77.87
2023-05-07T15:04:24.090Z,77.41
2023-05-07T15:06:50.410Z,76.93
2023-05-07T15:09:16.781Z,76.94
2023-05-07T15:11:46.059Z,76.54
2023-05-07T15:14:12.508Z,76.47
2023-05-07T15:16:38.885Z,76.21
2023-05-07T15:19:05.337Z,76.40
2023-05-07T15:21:32.200Z,76.88
2023-05-07T15:23:58.715Z,77.25
2023-05-07T15:26:25.048Z,76.74
2023-05-07T15:28:51.453Z,77.52
2023-05-07T15:31:17.973Z,76.73
2023-05-07T15:33:44.667Z,77.08
2023-05-07T15:36:11.134Z,76.81
2023-05-07T15:38:38.106Z,77.25
2023-05-07T15:41:04.823Z,77.16
2023-05-07T15:43:31.462Z,78.04
2023-05-07T15:45:58.032Z,78.31
2023-05-07T15:48:27.209Z,78.12
2023-05-07T15:50:56.991Z,77.76
2023-05-07T15:53:23.558Z,78.43
2023-05-07T15:55:50.012Z,78.54
2023-05-07T15:58:16.531Z,79.34
2023-05-07T16:00:43.072Z,78.61
2023-05-07T16:03:09.916Z,79.50
2023-05-07T16:05:36.459Z,79.20
2023-05-07T16:08:05.820Z,78.53
2023-05-07T16:10:32.484Z,78.46
2023-05-07T16:12:59.106Z,78.77
2023-05-07T16:15:25.939Z,78.95
2023-05-07T16:17:52.463Z,78.96
2023-05-07T16:20:24.467Z,79.00
2023-05-07T16:22:51.249Z,79.67
2023-05-07T16:25:18.154Z,78.61
2023-05-07T16:27:44.504Z,79.52
2023-05-07T16:30:11.061Z,79.54
2023-05-07T16:32:37.512Z,80.00
2023-05-07T16:35:06.617Z,79.68
2023-05-07T16:37:33.980Z,79.99
2023-05-07T16:40:06.882Z,78.91
2023-05-07T16:42:34.933Z,78.39
2023-05-07T16:45:02.107Z,78.41
2023-05-07T16:47:28.944Z,78.37
2023-05-07T16:49:55.904Z,78.93
2023-05-07T16:52:32.253Z,78.59
2023-05-07T16:54:58.802Z,78.54
2023-05-07T16:57:26.015Z,78.85
2023-05-07T16:59:52.720Z,79.05
2023-05-07T17:02:19.368Z,78.37
2023-05-07T17:04:58.998Z,78.21
2023-05-07T17:07:25.849Z,78.52
2023-05-07T17:09:52.550Z,78.27
2023-05-07T17:12:21.535Z,77.89
2023-05-07T17:14:48.515Z,77.93
2023-05-07T17:17:18.311Z,78.37
2023-05-07T17:19:45.974Z,77.86
2023-05-07T17:22:13.073Z,77.87
2023-05-07T17:24:49.057Z,78.65
2023-05-07T17:27:27.300Z,78.14
2023-05-07T17:29:53.979Z,77.84
2023-05-07T17:32:20.581Z,77.94
2023-05-07T17:34:50.178Z,78.24
2023-05-07T17:37:16.761Z,78.47
2023-05-07T17:39:43.238Z,78.52
2023-05-07T17:42:09.945Z,78.75
2023-05-07T17:44:41.465Z,79.30
2023-05-07T17:47:13.309Z,78.89
2023-05-07T17:49:40.128Z,78.75
2023-05-07T17:52:06.604Z,78.72
2023-05-07T17:54:33.200Z,79.36
2023-05-07T17:56:59.763Z,79.27
2023-05-07T17:59:26.184Z,80.49
2023-05-07T18:01:52.708Z,80.50
2023-05-07T18:04:19.255Z,80.31
2023-05-07T18:06:45.802Z,80.05
2023-05-07T18:09:12.450Z,79.91
2023-05-07T18:11:39.113Z,79.82
2023-05-07T18:14:05.673Z,80.33
2023-05-07T18:16:32.531Z,80.61
2023-05-07T18:18:59.137Z,79.64
2023-05-07T18:21:25.567Z,79.81
2023-05-07T18:23:52.162Z,80.82
2023-05-07T18:26:18.578Z,81.37
2023-05-07T18:28:45.133Z,81.71
2023-05-07T18:31:11.576Z,81.46
2023-05-07T18:33:38.326Z,81.44
2023-05-07T18:36:05.133Z,81.97
2023-05-07T18:38:32.112Z,81.90
2023-05-07T18:41:04.989Z,81.28
2023-05-07T18:43:32.298Z,80.47
2023-05-07T18:45:58.900Z,81.00
2023-05-07T18:48:26.659Z,81.66
2023-05-07T18:50:53.436Z,81.20
2023-05-07T18:53:20.148Z,80.01
2023-05-07T18:55:52.348Z,79.82
2023-05-07T18:58:18.972Z,81.09
2023-05-07T19:00:46.763Z,81.37
2023-05-07T19:03:13.978Z,81.63
2023-05-07T19:05:41.989Z,81.97
2023-05-07T19:08:09.282Z,82.00
2023-05-07T19:10:35.958Z,82.06
2023-05-07T19:13:02.752Z,81.39
2023-05-07T19:15:29.580Z,80.53
2023-05-07T19:17:56.372Z,80.57
2023-05-07T19:20:22.866Z,81.38
2023-05-07T19:22:49.984Z,81.37
2023-05-07T19:25:17.233Z,80.06
2023-05-07T19:27:43.885Z,80.57
2023-05-07T19:30:11.828Z,81.69
2023-05-07T19:32:38.848Z,82.08
2023-05-07T19:35:07.064Z,81.82
2023-05-07T19:37:33.843Z,80.44
2023-05-07T19:40:00.390Z,80.87
2023-05-07T19:42:26.808Z,80.71
2023-05-07T19:44:53.240Z,80.41
2023-05-07T19:47:22.149Z,81.01
2023-05-07T19:49:48.925Z,81.48
2023-05-07T19:52:15.687Z,81.82
2023-05-07T19:54:42.367Z,81.14
2023-05-07T19:57:08.903Z,81.74
2023-05-07T19:59:35.880Z,81.83
2023-05-07T20:02:03.633Z,80.97
2023-05-07T20:04:30.289Z,81.50
2023-05-07T20:06:59.046Z,81.81
2023-05-07T20:09:25.571Z,80.76
2023-05-07T20:11:52.675Z,81.07
2023-05-07T20:14:22.113Z,81.10
2023-05-07T20:16:51.778Z,81.61
2023-05-07T20:19:18.614Z,81.49
2023-05-07T20:21:45.856Z,82.01
2023-05-07T20:24:12.444Z,82.08
2023-05-07T20:26:39.034Z,82.18
2023-05-07T20:29:05.596Z,82.19
2023-05-07T20:31:32.309Z,81.99
2023-05-07T20:33:58.820Z,81.96
2023-05-07T20:36:25.334Z,82.61
2023-05-07T20:38:51.945Z,82.92
2023-05-07T20:41:18.454Z,83.06
2023-05-07T20:43:47.637Z,83.21
2023-05-07T20:46:14.374Z,83.14
2023-05-07T20:48:40.883Z,82.70
2023-05-07T20:51:12.531Z,83.22
2023-05-07T20:53:39.091Z,83.58
2023-05-07T20:56:05.467Z,83.98
2023-05-07T20:58:34.764Z,84.13
2023-05-07T21:01:03.670Z,84.15
2023-05-07T21:03:41.150Z,84.11
2023-05-07T21:06:07.664Z,84.18
2023-05-07T21:08:34.249Z,84.51
2023-05-07T21:11:03.039Z,84.63
2023-05-07T21:13:30.971Z,84.43
2023-05-07T21:15:57.409Z,85.14
2023-05-07T21:18:23.892Z,85.33
2023-05-07T21:20:50.497Z,84.92
2023-05-07T21:23:16.829Z,85.30
2023-05-07T21:25:43.265Z,85.21
2023-05-07T21:28:09.732Z,85.16
2023-05-07T21:30:39.340Z,85.28
2023-05-07T21:33:08.299Z,84.63
2023-05-07T21:35:35.570Z,84.09
2023-05-07T21:38:02.006Z,84.61
2023-05-07T21:40:31.006Z,84.53
2023-05-07T21:43:00.056Z,84.81
2023-05-07T21:45:26.609Z,84.90
2023-05-07T21:47:53.039Z,85.09
2023-05-07T21:50:19.818Z,84.25
2023-05-07T21:52:46.207Z,84.22
2023-05-07T21:55:12.877Z,84.05
2023-05-07T21:57:39.876Z,85.15
2023-05-07T22:00:07.618Z,85.39
2023-05-07T22:02:34.072Z,85.32
2023-05-07T22:05:00.683Z,85.24
2023-05-07T22:07:27.118Z,84.91
2023-05-07T22:09:53.614Z,84.76
2023-05-07T22:12:20.126Z,84.64
2023-05-07T22:14:46.544Z,84.57
2023-05-07T22:17:12.974Z,84.15
2023-05-07T22:19:39.320Z,84.04
2023-05-07T22:22:05.861Z,84.03
2023-05-07T22:24:32.330Z,83.45
2023-05-07T22:26:58.806Z,82.78
2023-05-07T22:29:25.409Z,82.51
2023-05-07T22:31:51.798Z,82.87
2023-05-07T22:34:18.148Z,82.71
2023-05-07T22:36:44.623Z,82.72
2023-05-07T22:39:10.940Z,82.58
2023-05-07T22:41:37.380Z,82.51
2023-05-07T22:44:03.960Z,82.17
2023-05-07T22:46:30.356Z,81.91
2023-05-07T22:48:56.691Z,81.92
2023-05-07T22:51:23.051Z,81.90
2023-05-07T22:53:49.517Z,81.71
2023-05-07T22:56:15.857Z,81.91
2023-05-07T22:58:42.197Z,82.01
2023-05-07T23:01:12.352Z,81.96
2023-05-07T23:03:38.765Z,80.83
2023-05-07T23:06:05.273Z,81.39
2023-05-07T23:08:31.608Z,81.58
2023-05-07T23:10:57.933Z,81.90
2023-05-07T23:13:24.436Z,81.95
2023-05-07T23:15:50.922Z,82.00
2023-05-07T23:18:17.251Z,82.29
2023-05-07T23:20:43.656Z,82.38
2023-05-07T23:23:10.153Z,82.57
2023-05-07T23:25:36.586Z,82.72
2023-05-07T23:28:03.045Z,82.85
2023-05-07T23:30:29.458Z,82.76
2023-05-07T23:32:55.964Z,81.92
2023-05-07T23:35:22.490Z,82.06
2023-05-07T23:37:48.972Z,81.05
2023-05-07T23:40:16.603Z,80.85
2023-05-07T23:42:43.321Z,79.61
2023-05-07T23:45:09.868Z,79.02
2023-05-07T23:47:36.401Z,79.22
2023-05-07T23:50:02.822Z,78.93
2023-05-07T23:52:29.207Z,78.73
2023-05-07T23:54:55.727Z,78.51
2023-05-07T23:57:22.190Z,78.98
2023-05-07T23:59:48.544Z,79.56
